Etusivu
METAR-TAF:

METAR-TAF

Lentoasemat :

Ann Arbor, Michigan, Yhdysvallat

Leveyspiiri: 42-13-26N, Pituuspiiri: 083-44-24W, korkeus merenpinnasta: 255 m

Tämänhetkinen sää

Tämä raportti tehtiin 10 minuuttia sitten, kello 05.53 UTC
tyyntä
Lämpötila 13°C
Kosteus 100%
Ilmanpaine 1022 hPa
Näkyvyys: 4.0 km
selkeää
utua

METAR: KARB 150553Z AUTO 00000KT 2 1/2SM BR CLR 13/13 A3018 RMK AO2 VIS 1V5 SLP219 T01280128 10178 20117 57001 $

Aika: 02:03 (06:03 UTC)


TAF: puuttuu

Säähavainnot ja -ennusteet yli 4000 lentoasemalta (METAR- ja TAF-raportit).

Käytössä olevat sääasemat on merkitty karttaan keltaisilla ja punaisilla pisteillä.

Aseta hiiri pisteen päälle nähdäksesi sääaseman nimen.

Klikkaa sitten nähdäksesi säähavainnot ja -ennusteet.

Kartan vaihtaminen: klikkaa mustalla rastilla varustettuja vihreitä pisteitä, niin voit zoomata sisään; viivalla varustettua vihreää pistettä, niin voit zoomata ulos tai vihreitä nuolia, niin pääset viereisille kartoille.


METAR-TAF: